Time;durP1;ratioP1;P1;durP2;ratioP2;P2;SDS_P1;SDS_P2;PMS_P1;PMS_P2;Temp;Humidity;BMP_temperature;BMP_pressure;BME280_temperature;BME280_humidity;BME280_pressure;Samples;Min_cycle;Max_cycle;Signal;HPM_P1;HPM_P2
2023/03/18 00:02:25;;;;;;;8.25;5.25;;;16.20;95.70;;;;;;5055551;28;20021;-73
2023/03/18 00:04:51;;;;;;;12.63;5.68;;;16.20;95.70;;;;;;5055745;28;20025;-73
2023/03/18 00:07:17;;;;;;;12.02;5.85;;;16.20;95.90;;;;;;5055586;28;20025;-72
2023/03/18 00:09:43;;;;;;;9.43;5.30;;;16.20;96.00;;;;;;5055567;28;20479;-73
2023/03/18 00:12:09;;;;;;;9.27;5.43;;;16.20;96.00;;;;;;5055548;28;20029;-73
2023/03/18 00:14:36;;;;;;;12.93;5.75;;;16.20;96.00;;;;;;5054818;28;20060;-72
2023/03/18 00:17:02;;;;;;;10.77;5.30;;;16.20;96.10;;;;;;5055428;28;20075;-72
2023/03/18 00:19:28;;;;;;;9.55;5.22;;;16.10;96.10;;;;;;5055535;28;20024;-72
2023/03/18 00:21:54;;;;;;;9.05;4.93;;;16.20;96.10;;;;;;5055289;28;20025;-73
2023/03/18 00:24:20;;;;;;;9.95;5.50;;;16.20;96.20;;;;;;5055500;28;20021;-72
2023/03/18 00:26:46;;;;;;;8.68;5.20;;;16.10;96.30;;;;;;5055067;28;20017;-73
2023/03/18 00:29:12;;;;;;;9.55;4.80;;;16.20;96.30;;;;;;5054871;28;20159;-72
2023/03/18 00:31:38;;;;;;;8.55;4.80;;;16.20;96.30;;;;;;5055107;28;20466;-73
2023/03/18 00:34:05;;;;;;;9.50;4.20;;;16.20;96.30;;;;;;5055564;28;20033;-72
2023/03/18 00:36:31;;;;;;;7.25;3.97;;;16.20;96.10;;;;;;5045987;28;20025;-73
2023/03/18 00:39:02;;;;;;;8.07;4.00;;;16.30;95.90;;;;;;5033754;28;20048;-73
2023/03/18 00:41:28;;;;;;;9.07;4.10;;;16.30;95.90;;;;;;5050111;28;20017;-72
2023/03/18 00:43:53;;;;;;;10.70;5.35;;;16.20;96.30;;;;;;5054181;28;20381;-72
2023/03/18 00:46:28;;;;;;;7.93;4.90;;;16.20;96.40;;;;;;5054896;28;20087;-73
2023/03/18 00:48:57;;;;;;;8.30;4.65;;;16.20;96.60;;;;;;5054314;28;20025;-73
2023/03/18 00:51:26;;;;;;;7.35;3.10;;;16.10;96.40;;;;;;5054702;28;20044;-72
2023/03/18 00:53:54;;;;;;;7.35;3.67;;;16.20;96.10;;;;;;5054816;28;20041;-72
2023/03/18 00:56:22;;;;;;;7.72;3.95;;;16.30;96.00;;;;;;5053421;28;20025;-72
2023/03/18 00:58:49;;;;;;;9.73;4.13;;;16.20;95.90;;;;;;5054559;28;20079;-72
2023/03/18 01:01:16;;;;;;;6.72;3.83;;;16.20;96.00;;;;;;5054381;28;20113;-72
2023/03/18 01:03:42;;;;;;;7.85;3.58;;;16.20;96.10;;;;;;5054511;28;20028;-72
2023/03/18 01:06:11;;;;;;;8.20;4.40;;;16.30;95.90;;;;;;5054465;28;20485;-72
2023/03/18 01:08:37;;;;;;;6.72;3.53;;;16.20;96.00;;;;;;5054742;28;20017;-72
2023/03/18 01:11:03;;;;;;;6.90;3.72;;;16.20;96.10;;;;;;5053529;28;20033;-72
2023/03/18 01:13:30;;;;;;;8.25;4.05;;;16.10;96.20;;;;;;5053965;28;20432;-72
2023/03/18 01:15:56;;;;;;;7.00;3.65;;;16.10;96.40;;;;;;5054246;28;20024;-72
2023/03/18 01:18:22;;;;;;;7.43;3.70;;;16.10;96.30;;;;;;5054296;28;20359;-72
2023/03/18 01:20:49;;;;;;;7.13;3.47;;;16.10;96.10;;;;;;5054384;28;20381;-72
2023/03/18 01:23:15;;;;;;;6.85;3.90;;;16.20;96.10;;;;;;5054171;28;20390;-72
2023/03/18 01:25:43;;;;;;;6.95;3.33;;;16.10;96.20;;;;;;5053886;28;20104;-72
2023/03/18 01:28:09;;;;;;;8.98;3.45;;;16.10;96.10;;;;;;5054076;28;20035;-72
2023/03/18 01:30:35;;;;;;;7.07;3.75;;;16.10;96.40;;;;;;5054057;28;20206;-72
2023/03/18 01:33:03;;;;;;;9.02;4.20;;;16.00;96.60;;;;;;5053868;28;20592;-72
2023/03/18 01:35:29;;;;;;;5.85;3.55;;;16.00;96.80;;;;;;5053963;28;20536;-72
2023/03/18 01:37:56;;;;;;;7.22;4.13;;;16.00;96.90;;;;;;5053948;28;20056;-72
2023/03/18 01:40:21;;;;;;;6.45;4.20;;;16.00;97.00;;;;;;5053834;28;20385;-72
2023/03/18 01:42:56;;;;;;;8.90;4.75;;;15.90;97.10;;;;;;5053693;28;20497;-72
2023/03/18 01:45:25;;;;;;;11.57;5.50;;;15.90;97.10;;;;;;5052425;28;20355;-72
2023/03/18 01:47:51;;;;;;;6.85;4.78;;;15.90;97.20;;;;;;5053695;28;20032;-72
2023/03/18 01:50:25;;;;;;;9.25;5.40;;;15.90;97.30;;;;;;5053797;28;20017;-72
2023/03/18 01:52:56;;;;;;;11.82;5.15;;;15.80;97.40;;;;;;5053545;28;20043;-72
2023/03/18 01:55:28;;;;;;;9.02;5.53;;;15.80;97.60;;;;;;5053507;28;20037;-72
2023/03/18 01:57:55;;;;;;;6.38;4.95;;;15.80;97.60;;;;;;5053256;28;20048;-72
2023/03/18 02:00:22;;;;;;;9.45;5.60;;;15.80;97.60;;;;;;5053323;28;20041;-72
2023/03/18 02:02:49;;;;;;;9.32;5.85;;;15.80;97.70;;;;;;5053507;28;20421;-71
2023/03/18 02:05:19;;;;;;;7.72;5.63;;;15.80;97.70;;;;;;5053697;28;20485;-72
2023/03/18 02:07:45;;;;;;;10.52;5.75;;;15.80;97.70;;;;;;5053246;28;20394;-72
2023/03/18 02:10:18;;;;;;;8.73;5.30;;;15.80;97.80;;;;;;5053163;28;20130;-72
2023/03/18 02:12:49;;;;;;;10.90;6.00;;;15.70;97.80;;;;;;5053381;28;20115;-72
2023/03/18 02:15:18;;;;;;;9.30;6.03;;;15.70;97.90;;;;;;5053378;28;20029;-72
2023/03/18 02:17:54;;;;;;;7.63;6.03;;;15.70;97.80;;;;;;5053118;28;20032;-72
2023/03/18 02:20:52;;;;;;;10.85;6.28;;;15.70;97.80;;;;;;5051940;28;20226;-72
2023/03/18 02:23:33;;;;;;;8.95;6.20;;;15.70;97.80;;;;;;5031333;28;20048;-72
2023/03/18 02:26:32;;;;;;;8.65;6.55;;;15.80;97.80;;;;;;5052954;28;20029;-72
2023/03/18 02:29:02;;;;;;;8.38;6.28;;;15.70;97.80;;;;;;5052800;28;20024;-72
2023/03/18 02:31:29;;;;;;;8.07;5.63;;;15.70;97.90;;;;;;5052713;28;20091;-72
2023/03/18 02:33:56;;;;;;;9.75;6.72;;;15.70;98.00;;;;;;5052872;28;20033;-72
2023/03/18 02:36:27;;;;;;;8.90;6.82;;;15.70;98.10;;;;;;5052945;28;20112;-72
2023/03/18 02:38:53;;;;;;;9.85;6.20;;;15.70;98.10;;;;;;5052441;28;20092;-72
2023/03/18 02:41:26;;;;;;;9.18;6.68;;;15.60;98.10;;;;;;5052940;28;20018;-72
2023/03/18 02:43:52;;;;;;;8.93;6.65;;;15.70;98.00;;;;;;5052563;28;20029;-72
2023/03/18 02:46:38;;;;;;;11.07;6.38;;;15.60;98.10;;;;;;5051372;28;20040;-72
2023/03/18 02:49:06;;;;;;;9.48;6.72;;;15.60;98.20;;;;;;5052711;28;20434;-72
2023/03/18 02:51:33;;;;;;;10.63;6.07;;;15.60;98.10;;;;;;5052628;28;20036;-72
2023/03/18 02:54:26;;;;;;;8.90;6.38;;;15.60;98.20;;;;;;5052212;28;20445;-72
2023/03/18 02:56:53;;;;;;;11.05;6.68;;;15.60;98.30;;;;;;5051070;28;20037;-72
2023/03/18 02:59:19;;;;;;;9.38;6.35;;;15.60;98.30;;;;;;5052411;28;20474;-72
2023/03/18 03:01:47;;;;;;;8.73;6.28;;;15.50;98.40;;;;;;5052454;28;20505;-72
2023/03/18 03:04:14;;;;;;;10.13;6.85;;;15.50;98.30;;;;;;5052522;28;20025;-72
2023/03/18 03:06:41;;;;;;;11.68;6.70;;;15.50;98.40;;;;;;5052315;28;20029;-72
2023/03/18 03:09:12;;;;;;;10.95;6.40;;;15.50;98.50;;;;;;5052268;28;20106;-72
2023/03/18 03:11:37;;;;;;;9.82;7.07;;;15.50;98.50;;;;;;5052584;28;20025;-72
2023/03/18 03:14:03;;;;;;;12.52;7.65;;;15.50;98.50;;;;;;5052149;28;20040;-72
2023/03/18 03:16:30;;;;;;;9.48;6.82;;;15.40;98.50;;;;;;5052202;28;20470;-72
2023/03/18 03:18:56;;;;;;;9.30;7.10;;;15.50;98.60;;;;;;5052398;28;20029;-72
2023/03/18 03:21:22;;;;;;;9.02;7.00;;;15.50;98.50;;;;;;5052269;28;20024;-71
2023/03/18 03:23:48;;;;;;;9.57;7.65;;;15.40;98.40;;;;;;5051901;28;20021;-72
2023/03/18 03:26:15;;;;;;;10.35;7.35;;;15.40;98.40;;;;;;5052421;28;20025;-72
2023/03/18 03:28:41;;;;;;;10.90;7.78;;;15.40;98.50;;;;;;5052155;28;20029;-72
2023/03/18 03:31:08;;;;;;;10.13;6.97;;;15.40;98.40;;;;;;5052303;28;20532;-72
2023/03/18 03:33:35;;;;;;;13.02;7.22;;;15.30;98.50;;;;;;5052706;28;20032;-72
2023/03/18 03:36:00;;;;;;;9.70;7.43;;;15.30;98.50;;;;;;5055021;28;20377;-72
2023/03/18 03:38:26;;;;;;;12.18;8.77;;;15.40;98.50;;;;;;5056008;28;20029;-72
2023/03/18 03:40:53;;;;;;;11.00;8.07;;;15.40;98.30;;;;;;5056183;28;20029;-72
2023/03/18 03:43:19;;;;;;;15.63;9.65;;;15.50;98.10;;;;;;5056100;28;20021;-72
2023/03/18 03:45:44;;;;;;;13.05;9.60;;;15.40;98.30;;;;;;5055963;28;20375;-72
2023/03/18 03:48:11;;;;;;;10.98;9.30;;;15.30;98.30;;;;;;5055920;28;20112;-72
2023/03/18 03:50:38;;;;;;;12.13;10.07;;;15.30;98.30;;;;;;5055824;28;20017;-72
2023/03/18 03:53:04;;;;;;;16.30;10.38;;;15.20;98.40;;;;;;5055879;28;20032;-72
2023/03/18 03:55:30;;;;;;;12.48;10.70;;;15.20;98.40;;;;;;5055722;28;20379;-72
2023/03/18 03:57:55;;;;;;;13.20;10.50;;;15.10;98.50;;;;;;5055842;28;20025;-72
2023/03/18 04:00:22;;;;;;;16.10;10.80;;;15.20;98.50;;;;;;5055510;28;20039;-72
2023/03/18 04:02:50;;;;;;;15.95;10.02;;;15.10;98.50;;;;;;5055729;28;20033;-72
2023/03/18 04:05:18;;;;;;;14.70;10.57;;;15.10;98.50;;;;;;5049684;28;20485;-72
2023/03/18 04:07:45;;;;;;;14.00;10.77;;;15.10;98.40;;;;;;5054080;28;20021;-72
2023/03/18 04:10:13;;;;;;;13.40;10.13;;;15.10;98.40;;;;;;5054761;28;20025;-72
2023/03/18 04:12:39;;;;;;;15.05;10.00;;;15.00;98.40;;;;;;5055417;28;20492;-72
2023/03/18 04:15:06;;;;;;;13.23;10.43;;;15.10;98.30;;;;;;5055301;28;20107;-72
2023/03/18 04:17:33;;;;;;;15.80;10.88;;;15.00;98.20;;;;;;5055368;28;20096;-72
2023/03/18 04:19:59;;;;;;;16.48;10.27;;;15.00;98.30;;;;;;5053856;28;20082;-72
2023/03/18 04:22:24;;;;;;;13.07;9.73;;;15.00;98.40;;;;;;5055532;28;20025;-72
2023/03/18 04:24:50;;;;;;;13.35;10.68;;;15.00;98.50;;;;;;5055299;28;20130;-72
2023/03/18 04:27:17;;;;;;;13.02;10.32;;;15.00;98.40;;;;;;5055002;28;20053;-72
2023/03/18 04:29:43;;;;;;;12.93;10.32;;;14.90;98.40;;;;;;5055082;28;20478;-72
2023/03/18 04:32:09;;;;;;;15.63;10.65;;;14.90;98.40;;;;;;5055086;28;20032;-72
2023/03/18 04:34:35;;;;;;;13.70;10.20;;;14.90;98.40;;;;;;5054883;28;20040;-72
2023/03/18 04:37:01;;;;;;;13.77;10.07;;;14.90;98.40;;;;;;5054113;28;20025;-72
2023/03/18 04:39:27;;;;;;;12.32;9.63;;;14.80;98.40;;;;;;5054945;28;20474;-72
2023/03/18 04:41:53;;;;;;;14.68;9.68;;;14.90;98.30;;;;;;5054135;28;20371;-72
2023/03/18 04:44:19;;;;;;;10.88;9.63;;;14.90;98.30;;;;;;5053390;28;20386;-72
2023/03/18 04:46:45;;;;;;;15.38;9.57;;;14.80;98.30;;;;;;5052568;28;20028;-72
2023/03/18 04:49:10;;;;;;;11.15;9.10;;;14.80;98.30;;;;;;5054591;28;20021;-72
2023/03/18 04:51:36;;;;;;;12.70;9.30;;;14.80;98.20;;;;;;5054552;28;20017;-72
2023/03/18 04:54:02;;;;;;;10.60;9.50;;;14.80;98.20;;;;;;5054815;28;20033;-72
2023/03/18 04:56:28;;;;;;;12.75;9.40;;;14.80;98.20;;;;;;5054734;28;20013;-72
2023/03/18 04:58:53;;;;;;;12.07;10.02;;;14.80;98.20;;;;;;5054606;28;20028;-72
2023/03/18 05:01:19;;;;;;;12.80;9.45;;;14.80;98.20;;;;;;5054522;28;20040;-72
2023/03/18 05:03:44;;;;;;;11.70;9.52;;;14.70;98.20;;;;;;5054393;28;20028;-72
2023/03/18 05:06:22;;;;;;;13.40;8.95;;;14.70;98.20;;;;;;5054667;28;20040;-72
2023/03/18 05:08:48;;;;;;;10.70;9.15;;;14.70;98.20;;;;;;5054434;28;20023;-72
2023/03/18 05:11:13;;;;;;;11.13;8.27;;;14.60;98.20;;;;;;5054507;28;20107;-72
2023/03/18 05:13:39;;;;;;;10.48;8.82;;;14.70;98.10;;;;;;5054217;28;20448;-72
2023/03/18 05:16:05;;;;;;;11.77;9.13;;;14.70;98.10;;;;;;5054534;28;20108;-72
2023/03/18 05:18:32;;;;;;;11.75;9.02;;;14.60;98.20;;;;;;5053852;28;20025;-72
2023/03/18 05:20:58;;;;;;;11.23;9.40;;;14.60;98.20;;;;;;5053032;28;20044;-72
2023/03/18 05:23:24;;;;;;;12.75;9.25;;;14.60;98.10;;;;;;5054239;28;20021;-72
2023/03/18 05:25:50;;;;;;;11.50;9.00;;;14.60;98.20;;;;;;5054193;28;20035;-72
2023/03/18 05:28:17;;;;;;;10.55;9.45;;;14.50;98.20;;;;;;5053804;28;20033;-72
2023/03/18 05:30:42;;;;;;;11.98;9.77;;;14.60;98.20;;;;;;5054022;28;20067;-72
2023/03/18 05:33:08;;;;;;;10.75;9.23;;;14.50;98.30;;;;;;5053725;28;20057;-72
2023/03/18 05:35:33;;;;;;;11.23;9.38;;;14.50;98.20;;;;;;5054386;28;20027;-72
2023/03/18 05:37:59;;;;;;;11.95;9.18;;;14.60;98.20;;;;;;5053897;28;20151;-73
2023/03/18 05:40:25;;;;;;;10.30;9.30;;;14.60;98.10;;;;;;5053995;28;20021;-72
2023/03/18 05:42:51;;;;;;;11.60;9.73;;;14.50;98.10;;;;;;5053621;28;20013;-72
2023/03/18 05:45:16;;;;;;;11.73;9.07;;;14.50;98.10;;;;;;5053771;28;20024;-72
2023/03/18 05:47:43;;;;;;;10.05;9.02;;;14.60;98.10;;;;;;5053283;28;20100;-72
2023/03/18 05:50:09;;;;;;;13.82;8.95;;;14.60;97.90;;;;;;5053836;28;20021;-72
2023/03/18 05:52:35;;;;;;;10.23;8.95;;;14.60;97.90;;;;;;5053657;28;20039;-71
2023/03/18 05:55:01;;;;;;;13.85;10.85;;;14.70;97.70;;;;;;5053561;28;20382;-72
2023/03/18 05:57:27;;;;;;;8.82;7.97;;;14.70;97.70;;;;;;5053680;28;20076;-74
2023/03/18 05:59:52;;;;;;;6.22;3.53;;;14.70;97.70;;;;;;5052619;28;20040;-75
2023/03/18 06:02:18;;;;;;;14.05;3.33;;;14.90;97.50;;;;;;5048398;28;20032;-74
2023/03/18 06:04:44;;;;;;;5.47;3.47;;;15.00;97.30;;;;;;5044352;28;20033;-72
2023/03/18 06:07:11;;;;;;;10.90;6.07;;;15.00;97.20;;;;;;5059331;28;20032;-73
2023/03/18 06:09:36;;;;;;;8.00;7.05;;;15.00;97.20;;;;;;5062118;28;20028;-75
2023/03/18 06:12:02;;;;;;;10.05;6.88;;;15.00;97.20;;;;;;5058217;28;20029;-76
2023/03/18 06:14:28;;;;;;;12.23;10.13;;;15.00;97.30;;;;;;5051035;28;20033;-77
2023/03/18 06:16:58;;;;;;;12.45;10.77;;;14.90;97.30;;;;;;5063576;28;20025;-74
2023/03/18 06:19:24;;;;;;;12.45;10.45;;;14.80;97.40;;;;;;5063193;28;20056;-73
2023/03/18 06:21:51;;;;;;;12.48;9.10;;;14.80;97.50;;;;;;5062516;28;20016;-74
2023/03/18 06:24:17;;;;;;;12.15;8.70;;;14.80;97.50;;;;;;5036184;28;20014;-74
2023/03/18 06:26:43;;;;;;;12.70;8.07;;;14.80;97.50;;;;;;5054611;28;20021;-74
2023/03/18 06:29:09;;;;;;;9.55;5.82;;;14.80;97.50;;;;;;5062285;28;20029;-74
2023/03/18 06:31:36;;;;;;;11.75;5.85;;;14.90;97.50;;;;;;5061509;28;20040;-74
2023/03/18 06:34:03;;;;;;;8.15;7.35;;;14.90;97.40;;;;;;5047718;28;20467;-74
2023/03/18 06:36:30;;;;;;;7.25;6.05;;;14.90;97.40;;;;;;5055467;28;20137;-74
2023/03/18 06:38:56;;;;;;;8.73;4.80;;;15.00;97.50;;;;;;5057368;28;20533;-74
2023/03/18 06:41:22;;;;;;;8.30;5.10;;;15.10;97.50;;;;;;5059141;28;20017;-74
2023/03/18 06:43:49;;;;;;;8.48;6.80;;;15.10;97.50;;;;;;5058275;28;20482;-74
2023/03/18 06:46:16;;;;;;;8.23;6.03;;;15.10;97.40;;;;;;5065279;28;20048;-74
2023/03/18 06:48:41;;;;;;;8.55;7.47;;;15.20;97.50;;;;;;5054908;28;20043;-74
2023/03/18 06:51:07;;;;;;;5.78;4.25;;;15.20;97.50;;;;;;5046714;28;20030;-73
2023/03/18 06:53:35;;;;;;;7.05;4.88;;;15.20;97.40;;;;;;5065028;28;20024;-73
2023/03/18 06:56:02;;;;;;;8.15;5.13;;;15.30;97.30;;;;;;5064976;28;20600;-73
2023/03/18 06:58:27;;;;;;;7.88;4.90;;;15.30;97.30;;;;;;5053801;28;20032;-73
2023/03/18 07:00:53;;;;;;;6.47;4.68;;;15.30;97.20;;;;;;5040595;28;20041;-73
2023/03/18 07:03:18;;;;;;;8.20;6.05;;;15.40;97.10;;;;;;5047129;28;20048;-73
2023/03/18 07:05:44;;;;;;;9.15;6.07;;;15.40;97.20;;;;;;5047407;28;20032;-73
2023/03/18 07:08:10;;;;;;;7.55;6.70;;;15.40;97.00;;;;;;5053201;28;20036;-73
2023/03/18 07:10:35;;;;;;;9.48;7.28;;;15.50;97.10;;;;;;5051397;28;20081;-74
2023/03/18 07:13:01;;;;;;;7.97;6.30;;;15.50;97.00;;;;;;5055768;28;20090;-73
2023/03/18 07:15:27;;;;;;;15.05;12.88;;;15.50;97.00;;;;;;5041576;28;20037;-73
2023/03/18 07:17:53;;;;;;;11.68;8.30;;;15.50;97.10;;;;;;5051476;28;20021;-73
2023/03/18 07:20:21;;;;;;;15.05;13.02;;;15.50;97.10;;;;;;5050341;28;20078;-74
2023/03/18 07:22:47;;;;;;;13.63;12.20;;;15.40;97.10;;;;;;5041091;28;20553;-74
2023/03/18 07:25:13;;;;;;;12.02;9.85;;;15.40;97.10;;;;;;5047484;28;20036;-74
2023/03/18 07:27:39;;;;;;;10.35;8.93;;;15.40;97.10;;;;;;5046537;28;20109;-74
2023/03/18 07:30:08;;;;;;;17.38;12.75;;;15.40;97.10;;;;;;5053859;28;20020;-77
2023/03/18 07:32:34;;;;;;;14.95;11.05;;;15.40;97.10;;;;;;5050266;28;20116;-74
2023/03/18 07:35:01;;;;;;;15.93;12.35;;;15.40;97.20;;;;;;5058378;28;20486;-75
2023/03/18 07:37:27;;;;;;;15.00;11.93;;;15.40;97.50;;;;;;5040509;28;20027;-75
2023/03/18 07:39:53;;;;;;;18.73;13.10;;;15.40;97.40;;;;;;5046538;28;20033;-75
2023/03/18 07:42:18;;;;;;;14.27;12.50;;;15.30;97.50;;;;;;5050740;28;20024;-76
2023/03/18 07:44:44;;;;;;;15.93;11.50;;;15.30;97.60;;;;;;5051192;28;20033;-77
2023/03/18 07:47:10;;;;;;;15.00;11.93;;;15.20;97.60;;;;;;5051955;28;20419;-77
2023/03/18 07:49:36;;;;;;;14.75;12.18;;;15.30;97.60;;;;;;5050660;28;20033;-76
2023/03/18 07:52:02;;;;;;;15.18;11.65;;;15.30;97.40;;;;;;5052089;28;20035;-76
2023/03/18 07:54:28;;;;;;;16.05;9.63;;;15.30;97.50;;;;;;5049425;28;20033;-76
2023/03/18 07:56:53;;;;;;;14.25;11.07;;;15.40;97.30;;;;;;5050825;28;20033;-76
2023/03/18 07:59:19;;;;;;;11.13;9.25;;;15.40;97.50;;;;;;5049900;28;20028;-76
2023/03/18 08:01:45;;;;;;;12.80;10.27;;;15.50;97.20;;;;;;5059869;28;20498;-73
2023/03/18 08:04:11;;;;;;;15.07;11.07;;;15.50;97.30;;;;;;5038881;28;20382;-73
2023/03/18 08:06:36;;;;;;;16.10;10.80;;;15.60;97.10;;;;;;5034261;28;20679;-75
2023/03/18 08:09:03;;;;;;;14.23;10.20;;;15.50;97.20;;;;;;5038930;28;20040;-75
2023/03/18 08:11:29;;;;;;;15.07;9.43;;;15.60;97.20;;;;;;5035273;28;20077;-75
2023/03/18 08:13:54;;;;;;;12.77;10.00;;;15.60;97.30;;;;;;5035916;28;20033;-75
2023/03/18 08:16:20;;;;;;;10.02;8.93;;;15.60;97.30;;;;;;5040833;28;20802;-74
2023/03/18 08:18:45;;;;;;;9.77;7.25;;;15.60;97.30;;;;;;5047617;28;20098;-75
2023/03/18 08:21:11;;;;;;;9.93;7.80;;;15.70;97.40;;;;;;5046448;28;20026;-75
2023/03/18 08:23:37;;;;;;;10.20;7.03;;;15.70;97.50;;;;;;5041477;28;20025;-75
2023/03/18 08:26:03;;;;;;;10.98;7.85;;;15.80;97.40;;;;;;5046567;28;20032;-74
2023/03/18 08:28:32;;;;;;;8.05;6.07;;;15.80;97.20;;;;;;5049414;28;20071;-74
2023/03/18 08:30:58;;;;;;;13.18;7.22;;;15.80;97.00;;;;;;5042634;28;20116;-74
2023/03/18 08:33:26;;;;;;;9.02;7.30;;;15.80;97.00;;;;;;5039386;28;20521;-73
2023/03/18 08:35:52;;;;;;;12.05;6.72;;;15.80;97.10;;;;;;5040785;28;20033;-73
2023/03/18 08:38:18;;;;;;;11.50;6.22;;;15.80;97.00;;;;;;5048279;28;20488;-73
2023/03/18 08:40:45;;;;;;;14.10;6.45;;;15.80;97.00;;;;;;5048866;28;20070;-71
2023/03/18 08:43:10;;;;;;;13.38;6.15;;;15.90;97.30;;;;;;5048342;28;20021;-71
2023/03/18 08:45:36;;;;;;;11.68;7.00;;;15.90;97.10;;;;;;5052176;28;20066;-69
2023/03/18 08:48:02;;;;;;;10.45;5.47;;;16.00;97.10;;;;;;5051410;28;20032;-70
2023/03/18 08:50:28;;;;;;;11.15;5.07;;;15.90;97.00;;;;;;5038087;28;20033;-69
2023/03/18 08:52:58;;;;;;;8.32;4.80;;;16.00;96.90;;;;;;5044218;28;20017;-71
2023/03/18 08:55:30;;;;;;;8.98;4.72;;;16.00;96.80;;;;;;5042578;28;20036;-71
2023/03/18 08:57:56;;;;;;;10.57;4.60;;;16.00;96.80;;;;;;5046478;28;20028;-67
2023/03/18 09:00:23;;;;;;;9.50;4.07;;;16.00;96.80;;;;;;5049146;28;20025;-65
2023/03/18 09:02:48;;;;;;;9.45;4.60;;;16.00;96.80;;;;;;5061616;28;20064;-69
2023/03/18 09:05:14;;;;;;;8.13;4.47;;;16.00;96.70;;;;;;5049192;28;20049;-67
2023/03/18 09:07:39;;;;;;;8.45;4.47;;;16.00;96.80;;;;;;5042801;28;20029;-67
2023/03/18 09:10:05;;;;;;;7.63;3.70;;;16.00;96.90;;;;;;5059329;28;20017;-71
2023/03/18 09:12:31;;;;;;;7.40;5.15;;;16.00;97.00;;;;;;5044663;28;20075;-70
2023/03/18 09:14:57;;;;;;;7.03;5.20;;;16.00;96.90;;;;;;5048922;28;20044;-74
2023/03/18 09:17:23;;;;;;;7.22;5.22;;;16.00;96.80;;;;;;5041898;28;20017;-73
2023/03/18 09:19:49;;;;;;;7.80;4.68;;;16.00;96.80;;;;;;5048721;28;20032;-75
2023/03/18 09:22:15;;;;;;;10.05;4.47;;;16.00;96.80;;;;;;5038242;28;20490;-80
2023/03/18 09:24:41;;;;;;;13.10;4.85;;;16.00;96.80;;;;;;5057570;28;20060;-71
2023/03/18 09:27:06;;;;;;;7.15;3.00;;;16.00;96.70;;;;;;5059353;28;20068;-77
2023/03/18 09:29:32;;;;;;;8.23;5.10;;;16.00;96.70;;;;;;5047737;28;20079;-78
2023/03/18 09:31:59;;;;;;;6.22;4.93;;;16.00;96.70;;;;;;5044169;28;20029;-76
2023/03/18 09:34:25;;;;;;;8.88;5.07;;;16.00;96.60;;;;;;5040916;28;20523;-75
2023/03/18 09:36:51;;;;;;;8.52;4.88;;;16.00;96.60;;;;;;5040372;28;20138;-80
2023/03/18 09:39:18;;;;;;;8.98;5.10;;;16.00;96.50;;;;;;5038264;28;20036;-68
2023/03/18 09:41:47;;;;;;;6.63;4.50;;;16.00;96.50;;;;;;5036347;28;20029;-82
2023/03/18 09:44:23;;;;;;;7.18;5.07;;;16.00;96.40;;;;;;5043169;28;20029;-68
2023/03/18 09:46:58;;;;;;;6.25;4.55;;;15.90;96.50;;;;;;5042045;28;20057;-71
2023/03/18 09:49:41;;;;;;;9.07;3.92;;;15.90;96.60;;;;;;5038661;28;20031;-86
2023/03/18 09:52:16;;;;;;;7.30;5.25;;;16.00;96.60;;;;;;5045645;28;20502;-78
2023/03/18 09:55:02;;;;;;;7.35;5.55;;;16.00;96.80;;;;;;5036895;28;20033;-68
2023/03/18 09:57:32;;;;;;;6.20;5.15;;;15.90;97.00;;;;;;5038380;28;20379;-78
2023/03/18 10:00:07;;;;;;;10.30;3.90;;;16.00;97.20;;;;;;5034721;28;20120;-73
2023/03/18 10:02:48;;;;;;;7.25;5.05;;;16.00;97.00;;;;;;5036553;28;20040;-68
2023/03/18 10:05:18;;;;;;;4.95;4.38;;;16.00;97.10;;;;;;5036366;28;20025;-75
2023/03/18 10:07:48;;;;;;;8.43;3.60;;;16.00;97.20;;;;;;5041041;28;20024;-77
2023/03/18 10:10:36;;;;;;;7.43;4.60;;;16.00;97.10;;;;;;5043171;28;20021;-75
2023/03/18 10:13:30;;;;;;;7.85;5.40;;;16.00;97.10;;;;;;5041333;28;20067;-75
2023/03/18 10:16:00;;;;;;;8.88;4.00;;;16.10;97.20;;;;;;5032471;28;20522;-68
2023/03/18 10:18:31;;;;;;;9.27;3.83;;;16.00;97.10;;;;;;5039601;28;20057;-74
2023/03/18 10:21:36;;;;;;;8.15;4.50;;;16.10;97.20;;;;;;5037363;28;20111;-77
2023/03/18 10:24:28;;;;;;;6.90;4.97;;;16.00;97.00;;;;;;5041106;28;20044;-70
2023/03/18 10:27:08;;;;;;;8.05;4.88;;;16.00;96.90;;;;;;5028622;28;20037;-80
2023/03/18 10:29:56;;;;;;;9.25;5.22;;;16.00;96.90;;;;;;5047376;28;20486;-78
2023/03/18 10:32:44;;;;;;;10.85;4.82;;;16.00;96.90;;;;;;5041413;28;20036;-72
2023/03/18 10:35:25;;;;;;;6.60;4.45;;;16.10;97.20;;;;;;5041868;28;20032;-77
2023/03/18 10:38:20;;;;;;;12.88;5.40;;;16.10;97.30;;;;;;5040840;28;20177;-78
2023/03/18 10:40:46;;;;;;;10.13;5.68;;;16.10;97.30;;;;;;5043413;28;20032;-77
2023/03/18 10:43:18;;;;;;;11.45;4.30;;;16.10;97.20;;;;;;5049922;28;20086;-77
2023/03/18 10:45:45;;;;;;;7.00;4.20;;;16.10;97.50;;;;;;5042149;28;20490;-79
2023/03/18 10:48:26;;;;;;;11.65;5.00;;;16.10;97.30;;;;;;5046246;28;20033;-77
2023/03/18 10:51:11;;;;;;;7.53;4.95;;;16.10;97.10;;;;;;5044280;28;20053;-76
2023/03/18 10:53:47;;;;;;;9.80;5.70;;;16.10;97.20;;;;;;5049638;28;20075;-77
2023/03/18 10:56:14;;;;;;;7.47;6.40;;;16.10;97.30;;;;;;5041917;28;20047;-77
2023/03/18 10:58:41;;;;;;;9.27;6.28;;;16.10;97.40;;;;;;5035794;28;20083;-78
2023/03/18 11:01:13;;;;;;;9.68;5.70;;;16.20;97.70;;;;;;5045485;28;20448;-77
2023/03/18 11:03:53;;;;;;;5.72;4.38;;;16.20;97.50;;;;;;5045799;28;20498;-74
2023/03/18 11:06:28;;;;;;;8.57;5.03;;;16.20;97.00;;;;;;5037422;28;20025;-78
2023/03/18 11:09:03;;;;;;;5.53;4.43;;;16.20;96.90;;;;;;5048083;28;20108;-79
2023/03/18 11:11:32;;;;;;;8.68;5.10;;;16.20;96.90;;;;;;5035236;28;20052;-71
2023/03/18 11:14:00;;;;;;;6.95;4.82;;;16.20;96.90;;;;;;5070091;28;20029;-78
2023/03/18 11:16:39;;;;;;;12.05;4.30;;;16.20;96.90;;;;;;5046466;28;20418;-79
2023/03/18 11:19:26;;;;;;;8.10;3.65;;;16.30;97.60;;;;;;5039047;28;20041;-76
2023/03/18 11:22:22;;;;;;;6.25;4.00;;;16.30;97.70;;;;;;5038371;28;20040;-79
2023/03/18 11:25:12;;;;;;;8.50;3.90;;;16.30;97.10;;;;;;5037863;28;20033;-71
2023/03/18 11:27:41;;;;;;;8.52;3.42;;;16.30;97.30;;;;;;5043593;28;20495;-71
2023/03/18 11:30:27;;;;;;;6.93;3.88;;;16.30;97.90;;;;;;5036524;28;20107;-78
2023/03/18 11:33:01;;;;;;;8.05;3.90;;;16.30;97.20;;;;;;5042642;28;20032;-74
2023/03/18 11:35:49;;;;;;;5.40;3.00;;;16.30;96.80;;;;;;5039151;28;20489;-68
2023/03/18 11:38:27;;;;;;;7.35;2.92;;;16.30;97.20;;;;;;5039666;28;20021;-67
2023/03/18 11:41:12;;;;;;;4.55;2.85;;;16.30;97.00;;;;;;5043452;28;20033;-68
2023/03/18 11:43:38;;;;;;;7.07;3.10;;;16.40;96.60;;;;;;5040143;28;20053;-69
2023/03/18 11:46:07;;;;;;;5.63;2.50;;;16.40;96.90;;;;;;5042035;28;20462;-72
2023/03/18 11:48:38;;;;;;;6.40;3.55;;;16.40;96.90;;;;;;5044481;28;20029;-70
2023/03/18 11:51:22;;;;;;;4.38;2.55;;;16.40;96.60;;;;;;5036097;28;20022;-67
2023/03/18 11:54:22;;;;;;;4.70;2.40;;;16.40;96.70;;;;;;5043554;28;20485;-73
2023/03/18 11:57:03;;;;;;;6.97;1.98;;;16.40;96.60;;;;;;5058341;28;20033;-72
2023/03/18 11:59:47;;;;;;;5.20;2.10;;;16.50;97.40;;;;;;5053580;28;20163;-70
2023/03/18 12:02:44;;;;;;;3.65;2.05;;;16.60;98.20;;;;;;5050032;28;20482;-68
2023/03/18 12:05:37;;;;;;;3.47;1.60;;;16.60;97.50;;;;;;5040299;28;20552;-70
2023/03/18 12:08:31;;;;;;;3.70;1.58;;;16.70;97.00;;;;;;5040716;28;20479;-81
2023/03/18 12:11:13;;;;;;;12.18;1.75;;;16.80;96.90;;;;;;5043776;28;20053;-74
2023/03/18 12:13:58;;;;;;;5.57;1.92;;;16.90;97.20;;;;;;5047182;28;20035;-72
2023/03/18 12:16:51;;;;;;;7.20;3.30;;;16.90;96.20;;;;;;5049947;28;20029;-77
2023/03/18 12:19:35;;;;;;;4.60;2.53;;;16.90;95.80;;;;;;5043636;28;20074;-68
2023/03/18 12:22:30;;;;;;;9.23;4.82;;;16.90;96.30;;;;;;5056332;28;20064;-75
2023/03/18 12:25:21;;;;;;;5.78;2.10;;;16.90;96.30;;;;;;5045294;28;20037;-77
2023/03/18 12:27:57;;;;;;;3.83;2.03;;;16.90;97.00;;;;;;5047534;28;20104;-72
2023/03/18 12:30:31;;;;;;;9.43;4.90;;;17.00;97.50;;;;;;5041566;28;20075;-68
2023/03/18 12:33:05;;;;;;;9.38;4.82;;;17.00;96.10;;;;;;5049057;28;20441;-74
2023/03/18 12:36:00;;;;;;;5.53;2.67;;;17.00;96.00;;;;;;5040424;28;20041;-72
2023/03/18 12:38:55;;;;;;;19.08;13.18;;;17.00;95.50;;;;;;5034778;28;20045;-78
2023/03/18 12:41:52;;;;;;;5.50;2.67;;;17.00;95.00;;;;;;5041471;28;20038;-72
2023/03/18 12:44:32;;;;;;;3.38;1.42;;;17.10;96.90;;;;;;5041504;28;20034;-76
2023/03/18 12:47:05;;;;;;;6.40;1.98;;;17.10;97.50;;;;;;5046721;28;20108;-77
2023/03/18 12:49:38;;;;;;;6.07;3.25;;;17.20;97.50;;;;;;5052163;28;20033;-79
2023/03/18 12:52:12;;;;;;;9.70;5.07;;;17.20;97.10;;;;;;5039949;28;20053;-72
2023/03/18 12:54:42;;;;;;;5.18;3.33;;;17.20;96.20;;;;;;5043574;28;20045;-75
2023/03/18 12:57:19;;;;;;;7.95;4.13;;;17.20;95.20;;;;;;5046335;28;20017;-75